METAR-Meldungen aus der Umgebung

   
EDMO - Oberpfaffenhofen, Germany
Entfernung von der Station bis: SSO 18 km
Aktualisierung: 02-08-2021 05:20
Teilweise bewölkt  
Teilweise bewölkt  
   Wind: Süden 9.3 km/h
Wind: Süden 9.3 km/h
Temperatur: 12°C
Taupunkt: 10°C
Luftfeuchte: 88%
Luftdruck: 1015 hPa
Bewölkt: Partly Cloudy
Sichtbarkeit: Mehr als 10 km
Bewölkung: leicht bewölkt 4900 ft,
Teilweise bewölkt 9500 ft
EDMO 020320Z AUTO 19005KT 150V230 9999 // FEW049/// SCT095/// 12/10 Q1015
ETSL - Lechfeld (ger-Af, Germany
Entfernung von der Station bis: WSW 23 km
Aktualisierung: 02-08-2021 05:20
  
  
   Wind: SSW 11.1 km/h
Wind: SSW 11.1 km/h
Temperatur: 12°C
Taupunkt: 10°C
Luftfeuchte: 88%
Luftdruck: 1015 hPa
Sichtbarkeit: Mehr als 10 km
ETSL 020320Z AUTO 21006KT 9999 // ////// 12/10 Q1015 ///
EDMA - Augsburg/Mulhaus, Germany
Entfernung von der Station bis: NW 30 km
Aktualisierung: 02-08-2021 05:20
Stark bewölkt  
Stark bewölkt  
   Wind: SSW 5.6 km/h
Wind: SSW 5.6 km/h
Temperatur: 12°C
Taupunkt: 11°C
Luftfeuchte: 94%
Luftdruck: 1015 hPa
Bewölkt: Mostly Cloudy
Sichtbarkeit: Mehr als 10 km
Bewölkung: Teilweise bewölkt 6300 ft,
Stark bewölkt 7200 ft
EDMA 020320Z AUTO 21003KT 170V240 9999 SCT063/// BKN072/// 12/11 Q1015
ETHA - Altenstadt/Schon, Germany
Entfernung von der Station bis: SSW 49 km
Aktualisierung: 02-08-2021 05:20
Teilweise bewölkt  
Teilweise bewölkt  
   Wind: SW 5.6 km/h
Wind: SW 5.6 km/h
Temperatur: 10°C
Gefühlt: 9°C
Taupunkt: 9°C
Luftfeuchte: 94%
Luftdruck: 1016 hPa
Bewölkt: Partly Cloudy
Sichtbarkeit: Mehr als 10 km
Bewölkung: leicht bewölkt 8000 ft,
Teilweise bewölkt 25000 ft
ETHA 020320Z 22003KT 9999 FEW080 SCT250 10/09 Q1016 BLACKBLU+
EDDM - Munich-Flughafen, Germany
Entfernung von der Station bis: ONO 50 km
Aktualisierung: 02-08-2021 05:20
leicht bewölkt  
leicht bewölkt  
   Wind: WSW 18.5 km/h
Wind: WSW 18.5 km/h
Temperatur: 13°C
Taupunkt: 11°C
Luftfeuchte: 88%
Luftdruck: 1015 hPa
Bewölkt: Few Clouds
Sichtbarkeit: Mehr als 10 km
Bewölkung: leicht bewölkt 4500 ft
EDDM 020320Z 24010KT 9999 FEW045 13/11 Q1015 NOSIG
 

Script entwickelt von  Saratoga-weather.org Angepasst für das Template von  Weerstation Leuven